createdAt,value
2017-12-13T00:00:10.751Z,2.70
2017-12-13T00:02:39.024Z,2.50
2017-12-13T00:05:07.266Z,2.50
2017-12-13T00:07:34.744Z,2.50
2017-12-13T00:10:02.225Z,2.50
2017-12-13T00:12:29.702Z,2.60
2017-12-13T00:14:57.923Z,2.60
2017-12-13T00:17:25.424Z,2.80
2017-12-13T00:19:53.654Z,2.60
2017-12-13T00:22:32.074Z,2.90
2017-12-13T00:24:59.556Z,2.50
2017-12-13T00:27:27.027Z,2.60
2017-12-13T00:29:55.259Z,2.70
2017-12-13T00:32:23.505Z,2.80
2017-12-13T00:34:50.985Z,2.70
2017-12-13T00:37:18.449Z,2.60
2017-12-13T00:39:45.914Z,2.60
2017-12-13T00:42:13.392Z,2.70
2017-12-13T00:44:40.859Z,2.50
2017-12-13T00:47:08.344Z,2.60
2017-12-13T00:49:36.566Z,2.50
2017-12-13T00:52:04.052Z,2.80
2017-12-13T00:54:31.509Z,2.80
2017-12-13T00:56:58.989Z,2.60
2017-12-13T00:59:27.218Z,2.60
2017-12-13T01:01:54.686Z,2.80
2017-12-13T01:04:22.171Z,3.00
2017-12-13T01:06:49.648Z,2.80
2017-12-13T01:09:17.141Z,2.70
2017-12-13T01:11:44.606Z,2.80
2017-12-13T01:14:12.085Z,2.80
2017-12-13T01:16:39.538Z,2.70
2017-12-13T01:19:07.020Z,2.60
2017-12-13T01:21:35.251Z,2.90
2017-12-13T01:24:02.716Z,3.00
2017-12-13T01:26:30.177Z,2.60
2017-12-13T01:28:57.643Z,2.80
2017-12-13T01:31:25.120Z,2.80
2017-12-13T01:33:52.586Z,2.80
2017-12-13T01:36:20.826Z,2.80
2017-12-13T01:38:48.299Z,3.10
2017-12-13T01:41:15.802Z,3.10
2017-12-13T01:43:43.268Z,3.00
2017-12-13T01:46:10.727Z,3.00
2017-12-13T01:48:38.222Z,2.80
2017-12-13T01:51:05.675Z,3.00
2017-12-13T01:53:33.154Z,3.00
2017-12-13T01:56:00.632Z,3.10
2017-12-13T01:58:28.871Z,3.40
2017-12-13T02:00:56.355Z,3.10
2017-12-13T02:03:23.892Z,3.30
2017-12-13T02:05:51.298Z,3.30
2017-12-13T02:08:18.769Z,3.30
2017-12-13T02:10:46.243Z,3.40
2017-12-13T02:13:13.723Z,3.20
2017-12-13T02:15:41.195Z,3.60
2017-12-13T02:18:08.666Z,3.40
2017-12-13T02:20:37.288Z,3.30
2017-12-13T02:23:04.751Z,3.70
2017-12-13T02:25:32.222Z,3.20
2017-12-13T02:27:59.692Z,3.50
2017-12-13T02:30:27.171Z,3.50
2017-12-13T02:32:54.631Z,3.30
2017-12-13T02:35:22.111Z,3.40
2017-12-13T02:37:50.339Z,3.20
2017-12-13T02:40:29.645Z,3.40
2017-12-13T02:42:57.116Z,3.20
2017-12-13T02:45:24.579Z,3.20
2017-12-13T02:47:52.056Z,3.20
2017-12-13T02:50:19.519Z,3.10
2017-12-13T02:52:46.969Z,3.10
2017-12-13T02:55:14.435Z,3.10
2017-12-13T02:57:41.904Z,3.20
2017-12-13T03:00:09.383Z,3.40
2017-12-13T03:02:37.613Z,3.10
2017-12-13T03:05:05.339Z,2.90
2017-12-13T03:07:32.832Z,3.30
2017-12-13T03:10:00.298Z,2.90
2017-12-13T03:12:27.756Z,3.10
2017-12-13T03:14:55.219Z,2.80
2017-12-13T03:17:22.683Z,2.90
2017-12-13T03:19:50.158Z,2.80
2017-12-13T03:22:18.394Z,2.90
2017-12-13T03:24:46.630Z,2.80
2017-12-13T03:27:14.087Z,2.70
2017-12-13T03:29:41.542Z,2.80
2017-12-13T03:32:09.775Z,2.80
2017-12-13T03:34:37.234Z,2.80
2017-12-13T03:37:04.716Z,2.70
2017-12-13T03:39:32.178Z,2.90
2017-12-13T03:42:00.416Z,2.80
2017-12-13T03:44:27.875Z,2.70
2017-12-13T03:46:55.345Z,2.80
2017-12-13T03:49:22.815Z,2.80
2017-12-13T03:51:50.365Z,2.80
2017-12-13T03:54:17.818Z,2.70
2017-12-13T03:56:45.299Z,2.80
2017-12-13T03:59:13.527Z,2.90
2017-12-13T04:01:41.003Z,2.80
2017-12-13T04:04:08.462Z,2.60
2017-12-13T04:06:35.930Z,2.80
2017-12-13T04:09:03.492Z,2.80
2017-12-13T04:11:31.053Z,3.00
2017-12-13T04:13:58.507Z,3.10
2017-12-13T04:16:25.967Z,2.80
2017-12-13T04:18:53.420Z,2.80
2017-12-13T04:21:20.898Z,2.80
2017-12-13T04:23:49.149Z,2.80
2017-12-13T04:26:16.628Z,3.00
2017-12-13T04:28:44.169Z,2.90
2017-12-13T04:31:11.638Z,2.60
2017-12-13T04:33:39.107Z,2.70
2017-12-13T04:36:07.371Z,2.60
2017-12-13T04:38:34.848Z,2.40
2017-12-13T04:41:03.070Z,2.50
2017-12-13T04:43:30.544Z,2.70
2017-12-13T04:45:58.047Z,2.40
2017-12-13T04:48:26.277Z,2.60
2017-12-13T04:50:53.739Z,2.50
2017-12-13T04:53:21.203Z,2.70
2017-12-13T04:55:48.653Z,2.50
2017-12-13T04:58:16.126Z,2.70
2017-12-13T05:00:43.582Z,2.60
2017-12-13T05:03:11.134Z,2.60
2017-12-13T05:05:38.581Z,2.60
2017-12-13T05:08:06.047Z,2.50
2017-12-13T05:10:33.503Z,2.70
2017-12-13T05:13:00.963Z,2.70
2017-12-13T05:15:28.433Z,2.70
2017-12-13T05:17:55.894Z,2.50
2017-12-13T05:20:23.451Z,2.30
2017-12-13T05:22:50.920Z,2.20
2017-12-13T05:25:18.378Z,2.40
2017-12-13T05:27:45.854Z,2.40
2017-12-13T05:30:14.074Z,2.30
2017-12-13T05:32:41.535Z,2.50
2017-12-13T05:35:08.993Z,2.20
2017-12-13T05:37:36.461Z,2.20
2017-12-13T05:40:03.923Z,2.40
2017-12-13T05:42:31.502Z,2.30
2017-12-13T05:44:58.967Z,2.40
2017-12-13T05:47:27.235Z,2.50
2017-12-13T05:49:54.701Z,2.40
2017-12-13T05:52:22.921Z,2.30
2017-12-13T05:54:50.387Z,2.60
2017-12-13T05:57:17.847Z,2.40
2017-12-13T05:59:45.316Z,2.50
2017-12-13T06:02:12.770Z,2.50
2017-12-13T06:04:40.230Z,2.50
2017-12-13T06:07:07.704Z,2.60
2017-12-13T06:09:35.172Z,2.60
2017-12-13T06:12:02.625Z,2.50
2017-12-13T06:14:30.087Z,2.60
2017-12-13T06:16:57.541Z,2.60
2017-12-13T06:19:25.025Z,2.40
2017-12-13T06:21:53.247Z,2.50
2017-12-13T06:24:20.714Z,2.80
2017-12-13T06:26:48.177Z,2.70
2017-12-13T06:29:15.654Z,2.60
2017-12-13T06:31:43.213Z,2.40
2017-12-13T06:34:10.691Z,2.40
2017-12-13T06:36:38.911Z,2.70
2017-12-13T06:39:06.386Z,2.80
2017-12-13T06:41:33.949Z,2.60
2017-12-13T06:44:01.418Z,2.70
2017-12-13T06:46:28.878Z,2.70
2017-12-13T06:48:56.349Z,2.80
2017-12-13T06:51:23.816Z,2.50
2017-12-13T06:53:52.024Z,2.70
2017-12-13T06:56:19.534Z,2.80
2017-12-13T06:58:46.983Z,2.80
2017-12-13T07:01:14.454Z,2.80
2017-12-13T07:03:41.902Z,2.70
2017-12-13T07:06:09.377Z,2.60
2017-12-13T07:08:37.626Z,2.80
2017-12-13T07:11:05.092Z,2.80
2017-12-13T07:13:32.546Z,2.80
2017-12-13T07:16:00.011Z,2.80
2017-12-13T07:18:27.458Z,2.50
2017-12-13T07:20:54.921Z,2.70
2017-12-13T07:23:22.382Z,2.90
2017-12-13T07:25:49.838Z,2.80
2017-12-13T07:28:17.298Z,2.80
2017-12-13T07:30:44.763Z,2.80
2017-12-13T07:33:12.247Z,2.60
2017-12-13T07:35:39.717Z,2.80
2017-12-13T07:38:07.282Z,3.00
2017-12-13T07:40:34.747Z,2.80
2017-12-13T07:43:02.217Z,3.00
2017-12-13T07:45:29.742Z,2.80
2017-12-13T07:47:57.189Z,2.70
2017-12-13T07:50:25.451Z,2.90
2017-12-13T07:52:52.936Z,3.00
2017-12-13T07:55:20.509Z,2.80
2017-12-13T07:57:47.992Z,2.80
2017-12-13T08:00:15.482Z,2.90
2017-12-13T08:02:42.965Z,2.90
2017-12-13T08:05:10.427Z,3.00
2017-12-13T08:07:37.908Z,3.20
2017-12-13T08:10:05.411Z,2.90
2017-12-13T08:12:32.878Z,3.10
2017-12-13T08:15:00.330Z,3.20
2017-12-13T08:17:27.799Z,3.00
2017-12-13T08:19:56.043Z,3.00
2017-12-13T08:22:23.538Z,3.30
2017-12-13T08:24:51.810Z,3.30
2017-12-13T08:27:19.282Z,3.10
2017-12-13T08:29:47.505Z,3.20
2017-12-13T08:32:14.986Z,3.10
2017-12-13T08:34:42.547Z,3.20
2017-12-13T08:37:10.092Z,3.30
2017-12-13T08:39:37.585Z,3.30
2017-12-13T08:42:05.865Z,3.20
2017-12-13T08:44:34.086Z,3.30
2017-12-13T08:47:01.584Z,3.10
2017-12-13T08:49:29.076Z,3.40
2017-12-13T08:51:56.553Z,3.50
2017-12-13T08:54:23.994Z,3.50
2017-12-13T08:56:51.484Z,3.60
2017-12-13T08:59:18.935Z,3.40
2017-12-13T09:01:46.449Z,3.50
2017-12-13T09:04:14.679Z,3.40
2017-12-13T09:06:42.157Z,3.50
2017-12-13T09:09:09.623Z,3.70
2017-12-13T09:11:37.863Z,3.40
2017-12-13T09:14:05.329Z,3.40
2017-12-13T09:16:32.791Z,3.90
2017-12-13T09:19:00.259Z,3.90
2017-12-13T09:21:27.722Z,3.70
2017-12-13T09:23:55.205Z,3.90
2017-12-13T09:26:23.415Z,3.80
2017-12-13T09:28:50.899Z,4.10
2017-12-13T09:31:18.358Z,4.20
2017-12-13T09:33:45.879Z,4.10
2017-12-13T09:36:13.277Z,4.00
2017-12-13T09:38:40.743Z,4.10
2017-12-13T09:41:08.199Z,4.10
2017-12-13T09:43:35.690Z,3.90
2017-12-13T09:46:03.912Z,4.10
2017-12-13T09:48:31.381Z,4.30
2017-12-13T09:50:59.377Z,4.20
2017-12-13T09:53:27.616Z,4.20
2017-12-13T09:55:55.079Z,4.20
2017-12-13T09:58:23.366Z,4.20
2017-12-13T10:00:51.598Z,4.10
2017-12-13T10:03:19.089Z,4.00
2017-12-13T10:05:46.542Z,4.10
2017-12-13T10:08:14.001Z,4.40
2017-12-13T10:10:41.465Z,4.20
2017-12-13T10:13:08.942Z,4.40
2017-12-13T10:15:36.427Z,4.50
2017-12-13T10:18:04.649Z,4.40
2017-12-13T10:20:32.168Z,4.00
2017-12-13T10:23:00.495Z,4.40
2017-12-13T10:25:27.938Z,4.40
2017-12-13T10:27:55.469Z,4.50
2017-12-13T10:30:23.699Z,4.50
2017-12-13T10:32:51.175Z,4.60
2017-12-13T10:35:18.712Z,4.50
2017-12-13T10:37:46.162Z,4.60
2017-12-13T10:40:13.721Z,4.50
2017-12-13T10:42:41.178Z,4.50
2017-12-13T10:45:08.661Z,4.40
2017-12-13T10:47:36.120Z,4.80
2017-12-13T10:50:04.403Z,4.90
2017-12-13T10:52:32.647Z,4.50
2017-12-13T10:55:00.130Z,4.60
2017-12-13T10:57:27.615Z,4.70
2017-12-13T10:59:55.106Z,4.70
2017-12-13T11:02:22.579Z,5.10
2017-12-13T11:04:50.063Z,5.20
2017-12-13T11:07:17.524Z,4.90
2017-12-13T11:09:44.989Z,5.00
2017-12-13T11:12:12.470Z,5.20
2017-12-13T11:14:40.701Z,4.90
2017-12-13T11:17:08.171Z,4.90
2017-12-13T11:19:35.630Z,4.80
2017-12-13T11:22:03.086Z,4.70
2017-12-13T11:24:30.585Z,4.70
2017-12-13T11:26:58.046Z,4.90
2017-12-13T11:29:25.518Z,4.80
2017-12-13T11:31:53.002Z,4.80
2017-12-13T11:34:21.251Z,5.00
2017-12-13T11:36:48.753Z,4.80
2017-12-13T11:39:16.242Z,4.60
2017-12-13T11:41:43.744Z,4.90
2017-12-13T11:44:11.226Z,4.80
2017-12-13T11:46:38.681Z,4.80
2017-12-13T11:49:06.171Z,4.70
2017-12-13T11:51:34.411Z,5.30
2017-12-13T11:54:01.861Z,5.30
2017-12-13T11:56:29.353Z,5.40
2017-12-13T11:58:56.821Z,5.30
2017-12-13T12:01:25.033Z,5.50
2017-12-13T12:03:52.496Z,5.40
2017-12-13T12:06:19.965Z,5.30
2017-12-13T12:08:47.427Z,5.50
2017-12-13T12:11:14.914Z,5.60
2017-12-13T12:13:42.389Z,5.50
2017-12-13T12:16:10.618Z,5.70
2017-12-13T12:18:38.089Z,6.00
2017-12-13T12:21:05.553Z,5.90
2017-12-13T12:23:33.043Z,5.80
2017-12-13T12:26:01.267Z,5.50
2017-12-13T12:28:28.741Z,5.60
2017-12-13T12:30:56.224Z,5.50
2017-12-13T12:33:24.476Z,5.60
2017-12-13T12:35:51.942Z,5.50
2017-12-13T12:38:19.406Z,5.70
2017-12-13T12:40:47.015Z,5.60
2017-12-13T12:43:14.478Z,5.60
2017-12-13T12:45:41.964Z,5.60
2017-12-13T12:48:09.429Z,5.60
2017-12-13T12:50:36.886Z,5.60
2017-12-13T12:53:04.372Z,5.80
2017-12-13T12:55:32.588Z,5.60
2017-12-13T12:58:00.069Z,5.90
2017-12-13T13:00:27.532Z,5.70
2017-12-13T13:02:55.003Z,5.80
2017-12-13T13:05:22.454Z,6.10
2017-12-13T13:07:49.926Z,5.90
2017-12-13T13:10:17.400Z,5.80
2017-12-13T13:12:45.645Z,5.80
2017-12-13T13:15:13.101Z,6.10
2017-12-13T13:17:40.592Z,6.00
2017-12-13T13:20:08.876Z,5.80
2017-12-13T13:22:37.098Z,5.70
2017-12-13T13:25:04.566Z,5.80
2017-12-13T13:27:32.028Z,5.60
2017-12-13T13:29:59.489Z,5.80
2017-12-13T13:32:26.959Z,5.70
2017-12-13T13:34:54.455Z,5.40
2017-12-13T13:37:21.924Z,5.10
2017-12-13T13:39:49.401Z,5.00
2017-12-13T13:42:16.846Z,5.10
2017-12-13T13:44:44.310Z,4.60
2017-12-13T13:47:11.766Z,4.40
2017-12-13T13:49:39.242Z,4.60
2017-12-13T13:52:06.725Z,4.50
2017-12-13T13:54:34.193Z,4.60
2017-12-13T13:57:02.506Z,4.30
2017-12-13T13:59:29.974Z,4.20
2017-12-13T14:01:57.452Z,4.30
2017-12-13T14:04:24.940Z,4.10
2017-12-13T14:06:52.420Z,4.10
2017-12-13T14:09:19.890Z,4.30
2017-12-13T14:11:47.355Z,4.00
2017-12-13T14:14:14.874Z,4.20
2017-12-13T14:16:42.349Z,4.30
2017-12-13T14:19:09.818Z,4.20
2017-12-13T14:21:37.303Z,4.20
2017-12-13T14:24:04.758Z,4.30
2017-12-13T14:26:32.221Z,4.20
2017-12-13T14:28:59.686Z,4.10
2017-12-13T14:31:27.158Z,4.20
2017-12-13T14:33:54.617Z,4.10
2017-12-13T14:36:22.129Z,4.10
2017-12-13T14:38:49.589Z,4.30
2017-12-13T14:41:18.002Z,4.20
2017-12-13T14:43:45.506Z,4.30
2017-12-13T14:46:13.734Z,4.20
2017-12-13T14:48:42.759Z,4.30
2017-12-13T14:51:10.231Z,4.10
2017-12-13T14:53:38.447Z,4.30
2017-12-13T14:56:05.918Z,4.20
2017-12-13T14:58:33.378Z,4.10
2017-12-13T15:01:00.842Z,4.30
2017-12-13T15:06:22.507Z,4.00
2017-12-13T15:08:49.987Z,4.40
2017-12-13T15:11:18.222Z,4.20
2017-12-13T15:13:45.740Z,4.30
2017-12-13T15:16:13.211Z,4.10
2017-12-13T15:18:40.670Z,3.90
2017-12-13T15:21:08.138Z,3.90
2017-12-13T15:23:35.591Z,4.20
2017-12-13T15:26:03.069Z,4.00
2017-12-13T15:28:30.526Z,4.20
2017-12-13T15:30:57.999Z,4.20
2017-12-13T15:33:25.477Z,4.20
2017-12-13T15:35:53.713Z,4.10
2017-12-13T15:38:21.242Z,3.80
2017-12-13T15:40:48.823Z,4.20
2017-12-13T15:43:16.319Z,4.10
2017-12-13T15:45:43.765Z,3.80
2017-12-13T15:48:11.258Z,4.10
2017-12-13T15:50:38.743Z,4.00
2017-12-13T15:53:06.209Z,3.90
2017-12-13T15:55:33.679Z,4.20
2017-12-13T15:58:01.145Z,4.20
2017-12-13T16:00:28.639Z,3.80
2017-12-13T16:02:56.099Z,4.00
2017-12-13T16:05:24.324Z,3.90
2017-12-13T16:07:51.786Z,3.90
2017-12-13T16:10:19.265Z,4.00
2017-12-13T16:12:46.738Z,4.10
2017-12-13T16:15:14.182Z,4.00
2017-12-13T16:17:41.649Z,4.00
2017-12-13T16:20:09.110Z,3.90
2017-12-13T16:22:36.576Z,4.10
2017-12-13T16:25:04.052Z,4.10
2017-12-13T16:27:31.515Z,4.10
2017-12-13T16:29:58.989Z,3.90
2017-12-13T16:32:26.458Z,3.70
2017-12-13T16:34:53.937Z,4.10
2017-12-13T16:37:21.404Z,3.90
2017-12-13T16:39:48.854Z,4.20
2017-12-13T16:42:16.874Z,4.00
2017-12-13T16:44:44.351Z,3.80
2017-12-13T16:47:11.818Z,3.90
2017-12-13T16:49:39.290Z,3.90
2017-12-13T16:52:07.562Z,3.70
2017-12-13T16:54:35.027Z,3.80
2017-12-13T16:57:02.492Z,3.80
2017-12-13T16:59:29.951Z,3.70
2017-12-13T17:04:31.422Z,3.90
2017-12-13T17:06:58.980Z,3.60
2017-12-13T17:09:26.468Z,3.70
2017-12-13T17:11:57.458Z,3.80
2017-12-13T17:14:24.935Z,3.70
2017-12-13T17:16:52.411Z,3.50
2017-12-13T17:19:19.874Z,4.00
2017-12-13T17:21:48.118Z,4.00
2017-12-13T17:24:15.604Z,3.70
2017-12-13T17:26:43.067Z,3.90
2017-12-13T17:29:10.534Z,3.90
2017-12-13T17:31:38.782Z,3.60
2017-12-13T17:34:07.121Z,3.60
2017-12-13T17:36:34.575Z,3.80
2017-12-13T17:39:02.044Z,3.70
2017-12-13T17:41:29.511Z,3.70
2017-12-13T17:43:56.986Z,4.10
2017-12-13T17:46:24.433Z,3.70
2017-12-13T17:48:51.902Z,3.60
2017-12-13T17:51:19.359Z,4.10
2017-12-13T17:53:46.830Z,3.60
2017-12-13T17:56:14.293Z,3.80
2017-12-13T17:58:41.762Z,3.70
2017-12-13T18:01:09.995Z,3.60
2017-12-13T18:03:37.504Z,3.80
2017-12-13T18:06:04.922Z,3.80
2017-12-13T18:08:32.393Z,3.60
2017-12-13T18:11:01.373Z,3.70
2017-12-13T18:13:28.827Z,3.80
2017-12-13T18:15:56.299Z,3.80
2017-12-13T18:18:23.757Z,3.80
2017-12-13T18:20:51.231Z,3.70
2017-12-13T18:23:18.772Z,3.60
2017-12-13T18:25:46.268Z,3.80
2017-12-13T18:28:14.489Z,4.10
2017-12-13T18:30:41.953Z,4.00
2017-12-13T18:33:10.219Z,3.50
2017-12-13T18:35:37.690Z,3.70
2017-12-13T18:38:05.147Z,3.80
2017-12-13T18:40:32.619Z,3.60
2017-12-13T18:43:00.076Z,3.50
2017-12-13T18:45:27.537Z,3.80
2017-12-13T18:47:54.988Z,4.00
2017-12-13T18:50:22.477Z,3.60
2017-12-13T18:52:50.691Z,3.90
2017-12-13T18:55:18.149Z,3.60
2017-12-13T18:57:45.614Z,4.00
2017-12-13T19:00:13.066Z,3.50
2017-12-13T19:02:40.543Z,3.40
2017-12-13T19:05:07.994Z,3.80
2017-12-13T19:07:35.467Z,3.70
2017-12-13T19:10:02.940Z,3.50
2017-12-13T19:12:30.455Z,3.80
2017-12-13T19:14:59.256Z,3.60
2017-12-13T19:17:26.722Z,3.50
2017-12-13T19:19:54.210Z,4.00
2017-12-13T19:22:21.718Z,3.50
2017-12-13T19:24:49.195Z,3.70
2017-12-13T19:27:16.671Z,3.80
2017-12-13T19:29:44.134Z,3.80
2017-12-13T19:32:11.679Z,4.10
2017-12-13T19:34:39.139Z,3.90
2017-12-13T19:37:06.621Z,3.80
2017-12-13T19:39:34.094Z,4.00
2017-12-13T19:42:02.314Z,4.10
2017-12-13T19:44:29.791Z,4.20
2017-12-13T19:46:57.246Z,3.80
2017-12-13T19:49:24.701Z,4.00
2017-12-13T19:51:52.953Z,4.10
2017-12-13T19:54:20.414Z,4.00
2017-12-13T19:56:47.901Z,4.20
2017-12-13T19:59:15.371Z,4.10
2017-12-13T20:01:43.809Z,3.90
2017-12-13T20:04:11.278Z,4.10
2017-12-13T20:06:38.738Z,4.20
2017-12-13T20:09:06.201Z,4.10
2017-12-13T20:11:33.662Z,3.80
2017-12-13T20:14:01.135Z,3.90
2017-12-13T20:16:28.612Z,4.00
2017-12-13T20:18:56.065Z,4.00
2017-12-13T20:21:23.524Z,3.90
2017-12-13T20:23:50.985Z,4.10
2017-12-13T20:26:19.213Z,4.30
2017-12-13T20:28:46.685Z,3.90
2017-12-13T20:31:14.909Z,4.20
2017-12-13T20:33:43.137Z,4.20
2017-12-13T20:36:10.624Z,4.00
2017-12-13T20:38:38.109Z,4.20
2017-12-13T20:41:06.326Z,4.40
2017-12-13T20:43:33.785Z,4.20
2017-12-13T20:46:01.244Z,4.40
2017-12-13T20:48:28.714Z,4.20
2017-12-13T20:50:56.185Z,4.30
2017-12-13T20:53:23.654Z,4.40
2017-12-13T20:55:51.885Z,4.50
2017-12-13T20:58:19.364Z,4.30
2017-12-13T21:00:46.833Z,4.20
2017-12-13T21:03:14.306Z,4.20
2017-12-13T21:05:42.544Z,4.60
2017-12-13T21:08:09.981Z,4.50
2017-12-13T21:10:37.460Z,4.60
2017-12-13T21:13:04.944Z,4.60
2017-12-13T21:15:32.406Z,4.50
2017-12-13T21:18:00.637Z,4.50
2017-12-13T21:20:28.097Z,4.80
2017-12-13T21:22:55.607Z,4.60
2017-12-13T21:25:23.070Z,4.50
2017-12-13T21:27:51.342Z,4.50
2017-12-13T21:30:18.797Z,4.50
2017-12-13T21:32:47.014Z,4.60
2017-12-13T21:35:14.495Z,4.60
2017-12-13T21:37:41.958Z,4.60
2017-12-13T21:40:09.426Z,4.70
2017-12-13T21:42:36.920Z,4.60
2017-12-13T21:45:05.160Z,4.70
2017-12-13T21:47:32.631Z,4.70
2017-12-13T21:50:00.103Z,4.70
2017-12-13T21:52:28.325Z,4.80
2017-12-13T21:54:55.799Z,4.70
2017-12-13T21:57:23.265Z,4.70
2017-12-13T21:59:50.717Z,4.80
2017-12-13T22:02:18.184Z,4.90
2017-12-13T22:04:45.642Z,4.80
2017-12-13T22:07:13.109Z,4.60
2017-12-13T22:09:40.569Z,4.80
2017-12-13T22:12:08.074Z,4.80
2017-12-13T22:14:35.524Z,5.10
2017-12-13T22:17:02.991Z,4.90
2017-12-13T22:19:30.471Z,4.80
2017-12-13T22:21:57.927Z,4.80
2017-12-13T22:24:25.381Z,5.10
2017-12-13T22:26:52.891Z,4.90
2017-12-13T22:29:21.158Z,4.70
2017-12-13T22:31:49.395Z,5.10
2017-12-13T22:34:16.857Z,5.00
2017-12-13T22:36:45.097Z,5.00
2017-12-13T22:39:12.550Z,4.90
2017-12-13T22:41:40.015Z,4.70
2017-12-13T22:44:07.487Z,4.90
2017-12-13T22:46:34.945Z,4.70
2017-12-13T22:49:02.810Z,4.80
2017-12-13T22:51:30.268Z,4.80
2017-12-13T22:53:57.749Z,4.80
2017-12-13T22:56:25.226Z,5.20
2017-12-13T22:58:52.695Z,5.10
2017-12-13T23:01:20.150Z,4.80
2017-12-13T23:03:47.623Z,4.90
2017-12-13T23:06:15.837Z,5.10
2017-12-13T23:08:43.315Z,5.00
2017-12-13T23:11:10.784Z,4.80
2017-12-13T23:13:38.266Z,5.10
2017-12-13T23:16:06.490Z,4.80
2017-12-13T23:18:33.956Z,4.80
2017-12-13T23:21:02.243Z,4.70
2017-12-13T23:23:29.728Z,4.80
2017-12-13T23:25:57.217Z,4.70
2017-12-13T23:28:24.734Z,4.90
2017-12-13T23:30:52.188Z,4.80
2017-12-13T23:33:19.663Z,4.70
2017-12-13T23:35:47.117Z,4.90
2017-12-13T23:38:14.589Z,4.90
2017-12-13T23:40:42.830Z,5.40
2017-12-13T23:43:10.303Z,5.00
2017-12-13T23:45:37.757Z,5.00
2017-12-13T23:48:05.246Z,5.30
2017-12-13T23:50:33.470Z,5.10
2017-12-13T23:53:00.971Z,5.20
2017-12-13T23:55:28.436Z,5.00
2017-12-13T23:57:56.665Z,5.10
